Time;durP1;ratioP1;P1;durP2;ratioP2;P2;SDS_P1;SDS_P2;PMS_P1;PMS_P2;Temp;Humidity;BMP_temperature;BMP_pressure;BME280_temperature;BME280_humidity;BME280_pressure;Samples;Min_cycle;Max_cycle;Signal;HPM_P1;HPM_P2
2023/06/28 00:01:14;;;;;;;4.68;2.00;;;18.30;57.10;;;;;;5050844;28;20146;-68
2023/06/28 00:03:41;;;;;;;6.43;2.38;;;18.30;57.20;;;;;;5033829;28;20473;-68
2023/06/28 00:06:06;;;;;;;4.95;2.05;;;18.30;57.30;;;;;;5049863;28;20041;-68
2023/06/28 00:08:32;;;;;;;4.20;1.70;;;18.30;57.20;;;;;;5034093;28;20040;-68
2023/06/28 00:10:58;;;;;;;4.53;1.88;;;18.30;57.30;;;;;;5051037;28;20102;-68
2023/06/28 00:13:24;;;;;;;4.57;2.00;;;18.30;57.30;;;;;;5050923;28;20381;-68
2023/06/28 00:15:50;;;;;;;4.10;2.10;;;18.20;57.20;;;;;;5051713;28;20048;-68
2023/06/28 00:18:15;;;;;;;5.97;2.03;;;18.20;57.30;;;;;;5050569;28;20037;-68
2023/06/28 00:20:41;;;;;;;5.35;2.05;;;18.20;57.30;;;;;;5050686;28;20072;-68
2023/06/28 00:23:08;;;;;;;5.97;1.67;;;18.20;57.40;;;;;;5050832;28;20078;-68
2023/06/28 00:25:35;;;;;;;4.70;1.88;;;18.20;57.50;;;;;;5034357;28;20114;-68
2023/06/28 00:28:01;;;;;;;5.18;1.80;;;18.20;57.40;;;;;;5051755;28;20033;-68
2023/06/28 00:30:26;;;;;;;4.30;1.77;;;18.20;57.50;;;;;;5034127;28;20064;-68
2023/06/28 00:32:52;;;;;;;5.32;2.30;;;18.20;57.60;;;;;;5051436;28;20100;-68
2023/06/28 00:35:18;;;;;;;4.82;1.88;;;18.20;57.70;;;;;;5050608;28;20496;-68
2023/06/28 00:37:44;;;;;;;5.90;1.90;;;18.10;57.70;;;;;;5050372;28;20052;-68
2023/06/28 00:40:09;;;;;;;5.00;2.20;;;18.10;57.70;;;;;;5033999;28;20037;-68
2023/06/28 00:42:35;;;;;;;4.35;1.75;;;18.10;57.70;;;;;;5050602;28;20041;-68
2023/06/28 00:45:01;;;;;;;4.60;1.73;;;18.10;57.70;;;;;;5049999;28;20048;-68
2023/06/28 00:47:28;;;;;;;4.00;2.10;;;18.10;57.70;;;;;;5050682;28;20115;-68
2023/06/28 00:49:55;;;;;;;6.18;2.15;;;18.10;57.80;;;;;;5050596;28;20040;-68
2023/06/28 00:52:21;;;;;;;4.53;1.90;;;18.00;57.80;;;;;;5034210;28;20055;-68
2023/06/28 00:54:47;;;;;;;3.67;1.85;;;18.00;57.80;;;;;;5050217;28;20095;-68
2023/06/28 00:57:13;;;;;;;4.28;1.98;;;18.00;57.90;;;;;;5053746;28;20044;-68
2023/06/28 00:59:40;;;;;;;4.60;2.00;;;18.00;57.90;;;;;;5054290;28;20037;-68
2023/06/28 01:02:06;;;;;;;3.08;1.73;;;18.00;58.00;;;;;;5055197;28;20033;-68
2023/06/28 01:04:33;;;;;;;5.18;2.00;;;18.00;58.00;;;;;;5053320;28;20091;-68
2023/06/28 01:07:01;;;;;;;5.13;2.35;;;18.00;58.00;;;;;;5053875;28;20090;-68
2023/06/28 01:09:28;;;;;;;6.13;2.45;;;18.00;58.10;;;;;;5054181;28;20032;-68
2023/06/28 01:11:55;;;;;;;4.97;2.15;;;18.00;58.20;;;;;;5053566;28;20041;-68
2023/06/28 01:14:23;;;;;;;3.40;1.90;;;18.00;58.30;;;;;;5053470;28;20037;-68
2023/06/28 01:16:54;;;;;;;4.20;2.10;;;17.90;58.30;;;;;;5052907;28;20480;-68
2023/06/28 01:19:22;;;;;;;7.68;2.80;;;17.90;58.40;;;;;;5053755;28;20051;-68
2023/06/28 01:21:57;;;;;;;5.88;2.70;;;17.90;58.40;;;;;;5053558;28;20128;-68
2023/06/28 01:24:24;;;;;;;4.07;2.25;;;17.90;58.40;;;;;;5053240;28;20086;-68
2023/06/28 01:26:52;;;;;;;4.55;1.92;;;17.90;58.40;;;;;;5053426;28;20048;-68
2023/06/28 01:29:23;;;;;;;5.05;2.35;;;17.90;58.40;;;;;;5053027;28;20084;-68
2023/06/28 01:31:53;;;;;;;5.25;2.17;;;17.90;58.50;;;;;;5053393;28;20561;-68
2023/06/28 01:34:19;;;;;;;5.68;2.30;;;17.90;58.50;;;;;;5052884;28;20044;-68
2023/06/28 01:36:47;;;;;;;4.25;2.13;;;17.90;58.60;;;;;;5054876;28;20033;-65
2023/06/28 01:39:15;;;;;;;3.53;2.20;;;17.90;58.70;;;;;;5036522;28;20040;-65
2023/06/28 01:41:42;;;;;;;6.25;3.17;;;17.80;58.70;;;;;;5053443;28;20051;-65
2023/06/28 01:44:08;;;;;;;5.70;2.65;;;17.80;59.10;;;;;;5054131;28;20040;-65
2023/06/28 01:46:34;;;;;;;4.40;2.50;;;17.80;59.20;;;;;;5054393;28;20033;-65
2023/06/28 01:49:01;;;;;;;5.60;2.17;;;17.80;59.30;;;;;;5053114;28;20373;-65
2023/06/28 01:51:27;;;;;;;4.95;2.50;;;17.70;59.30;;;;;;5036747;28;20461;-65
2023/06/28 01:53:53;;;;;;;4.00;2.17;;;17.70;59.20;;;;;;5045195;28;20120;-65
2023/06/28 01:56:19;;;;;;;3.13;2.03;;;17.70;59.20;;;;;;5054240;28;20037;-65
2023/06/28 01:58:44;;;;;;;5.07;2.30;;;17.70;59.30;;;;;;5052868;28;20112;-65
2023/06/28 02:01:10;;;;;;;5.57;2.00;;;17.70;59.40;;;;;;5053013;28;20422;-65
2023/06/28 02:03:36;;;;;;;4.43;2.10;;;17.60;59.30;;;;;;5052363;28;20555;-65
2023/06/28 02:06:01;;;;;;;4.97;2.20;;;17.60;59.30;;;;;;5035897;28;20033;-65
2023/06/28 02:08:27;;;;;;;7.13;2.25;;;17.60;59.30;;;;;;5035710;28;20499;-65
2023/06/28 02:10:53;;;;;;;3.50;1.73;;;17.70;59.40;;;;;;5052726;28;21943;-65
2023/06/28 02:13:18;;;;;;;3.47;2.13;;;17.60;59.30;;;;;;5052689;28;20399;-65
2023/06/28 02:15:44;;;;;;;5.60;2.58;;;17.60;59.40;;;;;;5051253;28;20045;-65
2023/06/28 02:18:10;;;;;;;5.13;2.10;;;17.60;59.40;;;;;;5052621;28;20036;-65
2023/06/28 02:20:35;;;;;;;5.20;2.03;;;17.60;59.40;;;;;;5052753;28;20044;-65
2023/06/28 02:23:01;;;;;;;3.60;2.20;;;17.70;59.60;;;;;;5052542;28;20049;-65
2023/06/28 02:25:27;;;;;;;4.72;2.25;;;17.60;59.60;;;;;;5035573;28;20545;-65
2023/06/28 02:27:53;;;;;;;4.35;2.20;;;17.60;59.60;;;;;;5053513;28;20029;-65
2023/06/28 02:30:19;;;;;;;5.65;2.55;;;17.60;59.70;;;;;;5052426;28;20380;-65
2023/06/28 02:32:45;;;;;;;6.35;2.72;;;17.70;59.80;;;;;;5052455;28;20055;-65
2023/06/28 02:35:12;;;;;;;5.40;2.55;;;17.60;59.90;;;;;;5053432;28;20041;-65
2023/06/28 02:37:37;;;;;;;7.05;2.40;;;17.70;60.30;;;;;;5052011;28;20059;-65
2023/06/28 02:40:04;;;;;;;4.43;1.80;;;17.70;60.30;;;;;;5035696;28;20479;-65
2023/06/28 02:42:30;;;;;;;5.55;2.03;;;17.70;60.30;;;;;;5051950;28;20041;-65
2023/06/28 02:44:56;;;;;;;5.10;2.47;;;17.70;60.50;;;;;;5051976;28;20133;-65
2023/06/28 02:47:24;;;;;;;4.05;2.00;;;17.70;60.60;;;;;;5051767;28;20063;-65
2023/06/28 02:49:49;;;;;;;3.90;2.13;;;17.70;60.80;;;;;;5051998;28;20033;-65
2023/06/28 02:52:15;;;;;;;5.50;1.92;;;17.70;60.90;;;;;;5035270;28;20390;-65
2023/06/28 02:54:41;;;;;;;8.48;2.75;;;17.70;61.20;;;;;;5034516;28;20069;-65
2023/06/28 02:57:09;;;;;;;4.57;2.42;;;17.70;61.00;;;;;;5051914;28;20079;-65
2023/06/28 02:59:34;;;;;;;6.63;2.88;;;17.70;61.30;;;;;;5051860;28;20044;-65
2023/06/28 03:02:03;;;;;;;4.00;2.30;;;17.70;61.50;;;;;;5052431;28;20167;-65
2023/06/28 03:04:29;;;;;;;4.30;2.15;;;17.80;62.00;;;;;;5051078;28;20135;-65
2023/06/28 03:06:54;;;;;;;5.18;2.40;;;17.80;62.40;;;;;;5051411;28;20077;-65
2023/06/28 03:09:21;;;;;;;4.45;2.10;;;17.80;62.30;;;;;;5035517;28;20067;-65
2023/06/28 03:11:47;;;;;;;4.88;2.38;;;17.80;62.30;;;;;;5035257;28;20067;-65
2023/06/28 03:14:13;;;;;;;5.55;2.30;;;17.80;62.50;;;;;;5051399;28;20560;-65
2023/06/28 03:16:39;;;;;;;3.83;2.35;;;17.80;63.20;;;;;;5051445;28;20057;-65
2023/06/28 03:19:08;;;;;;;3.97;2.03;;;17.80;62.70;;;;;;5034889;28;20149;-65
2023/06/28 03:21:34;;;;;;;4.43;2.25;;;17.80;62.60;;;;;;5051458;28;20438;-65
2023/06/28 03:24:00;;;;;;;5.00;2.55;;;17.80;62.70;;;;;;5050997;28;20052;-65
2023/06/28 03:26:27;;;;;;;3.85;2.38;;;17.80;63.00;;;;;;5051511;28;20041;-65
2023/06/28 03:28:57;;;;;;;4.93;2.30;;;17.80;63.30;;;;;;5051386;28;20124;-65
2023/06/28 03:31:23;;;;;;;4.78;2.28;;;17.80;63.30;;;;;;5052542;28;20037;-65
2023/06/28 03:33:49;;;;;;;4.88;2.38;;;17.80;63.40;;;;;;5051073;28;20048;-65
2023/06/28 03:36:14;;;;;;;3.83;1.90;;;17.80;63.40;;;;;;5050688;28;20079;-65
2023/06/28 03:38:40;;;;;;;3.72;2.20;;;17.80;63.40;;;;;;5034807;28;20120;-67
2023/06/28 03:41:07;;;;;;;4.50;2.20;;;17.80;63.40;;;;;;5034433;28;20124;-68
2023/06/28 03:43:32;;;;;;;3.88;2.08;;;17.90;63.60;;;;;;5052134;28;20084;-65
2023/06/28 03:45:58;;;;;;;3.80;1.90;;;17.80;63.50;;;;;;5034553;28;20064;-65
2023/06/28 03:48:24;;;;;;;6.57;2.53;;;17.90;63.50;;;;;;5052116;28;20083;-65
2023/06/28 03:50:49;;;;;;;3.95;2.22;;;17.80;63.60;;;;;;5051124;28;20037;-65
2023/06/28 03:53:15;;;;;;;3.88;2.00;;;17.80;63.70;;;;;;5034287;28;20449;-65
2023/06/28 03:55:41;;;;;;;3.38;1.95;;;17.90;63.90;;;;;;5017846;28;20025;-65
2023/06/28 03:58:06;;;;;;;3.40;1.77;;;17.90;64.10;;;;;;5051287;28;20484;-65
2023/06/28 04:00:32;;;;;;;3.88;2.00;;;17.80;64.40;;;;;;5050551;28;20036;-65
2023/06/28 04:02:58;;;;;;;5.45;2.80;;;17.80;64.50;;;;;;5018899;28;20391;-65
2023/06/28 04:05:23;;;;;;;4.35;2.20;;;17.90;64.90;;;;;;5053701;28;20048;-65
2023/06/28 04:07:54;;;;;;;4.43;1.98;;;17.90;65.10;;;;;;5054272;28;21704;-65
2023/06/28 04:10:21;;;;;;;4.80;2.28;;;17.90;65.00;;;;;;5054398;28;20135;-65
2023/06/28 04:12:47;;;;;;;4.35;2.38;;;17.90;64.90;;;;;;5053785;28;20138;-65
2023/06/28 04:15:12;;;;;;;5.10;2.58;;;17.90;65.40;;;;;;5053926;28;20048;-65
2023/06/28 04:17:38;;;;;;;4.90;1.92;;;17.90;65.70;;;;;;5054307;28;20060;-65
2023/06/28 04:20:06;;;;;;;5.38;2.10;;;17.90;65.50;;;;;;5037367;28;20042;-65
2023/06/28 04:22:32;;;;;;;4.82;2.15;;;17.90;65.60;;;;;;5071932;28;20029;-65
2023/06/28 04:24:58;;;;;;;3.88;2.15;;;17.90;65.90;;;;;;5053707;28;20060;-65
2023/06/28 04:27:23;;;;;;;4.82;2.50;;;17.90;66.30;;;;;;5037565;28;20037;-65
2023/06/28 04:29:49;;;;;;;5.75;2.47;;;17.90;66.40;;;;;;5072132;28;20044;-65
2023/06/28 04:32:23;;;;;;;4.72;3.00;;;17.90;66.70;;;;;;5057845;28;20070;-65
2023/06/28 04:34:52;;;;;;;4.15;2.40;;;17.90;67.20;;;;;;5071161;28;20040;-65
2023/06/28 04:37:21;;;;;;;4.03;2.00;;;17.80;67.30;;;;;;5057408;28;20087;-65
2023/06/28 04:39:47;;;;;;;5.57;1.83;;;17.80;67.00;;;;;;5058043;28;20036;-65
2023/06/28 04:42:14;;;;;;;4.53;1.80;;;17.80;66.80;;;;;;5057701;28;20059;-65
2023/06/28 04:44:43;;;;;;;3.95;1.77;;;17.90;67.10;;;;;;5057430;28;20087;-65
2023/06/28 04:47:15;;;;;;;4.63;2.28;;;17.90;67.20;;;;;;5053824;28;20430;-65
2023/06/28 04:49:46;;;;;;;2.70;1.50;;;17.80;67.10;;;;;;5050127;28;20076;-65
2023/06/28 04:52:13;;;;;;;2.05;1.35;;;17.90;67.10;;;;;;5057736;28;20565;-65
2023/06/28 04:54:40;;;;;;;3.17;1.73;;;17.80;67.10;;;;;;5057350;28;20076;-65
2023/06/28 04:57:06;;;;;;;3.40;1.65;;;17.80;67.10;;;;;;5057266;28;20045;-65
2023/06/28 04:59:31;;;;;;;3.95;1.70;;;17.80;67.10;;;;;;5057198;28;20047;-65
2023/06/28 05:01:58;;;;;;;4.47;1.70;;;17.80;67.20;;;;;;5057174;28;20078;-65
2023/06/28 05:04:24;;;;;;;3.97;1.88;;;17.90;67.50;;;;;;5074798;28;20131;-65
2023/06/28 05:06:51;;;;;;;4.53;2.55;;;17.80;67.50;;;;;;5057401;28;20112;-65
2023/06/28 05:09:18;;;;;;;5.60;2.88;;;17.80;67.70;;;;;;5057216;28;20046;-65
2023/06/28 05:11:43;;;;;;;7.25;2.60;;;17.80;68.30;;;;;;5056785;28;20040;-65
2023/06/28 05:14:09;;;;;;;4.38;1.90;;;17.80;67.90;;;;;;5057240;28;20047;-65
2023/06/28 05:16:35;;;;;;;5.85;2.92;;;17.80;67.70;;;;;;5056635;28;20098;-65
2023/06/28 05:19:00;;;;;;;7.57;2.55;;;17.80;67.80;;;;;;5057029;28;20095;-65
2023/06/28 05:21:26;;;;;;;7.30;3.65;;;17.80;67.70;;;;;;5056727;28;20553;-65
2023/06/28 05:23:52;;;;;;;5.95;3.20;;;17.80;68.00;;;;;;5055558;28;20089;-65
2023/06/28 05:26:17;;;;;;;5.75;3.72;;;17.80;68.10;;;;;;5056917;28;20044;-65
2023/06/28 05:28:43;;;;;;;6.88;2.97;;;17.80;68.30;;;;;;5055499;28;20430;-66
2023/06/28 05:31:09;;;;;;;11.32;3.80;;;17.80;68.40;;;;;;5055521;28;20047;-65
2023/06/28 05:33:34;;;;;;;7.43;3.70;;;17.80;68.60;;;;;;5055270;28;20044;-65
2023/06/28 05:36:00;;;;;;;5.70;3.42;;;17.80;68.90;;;;;;5056422;28;20028;-65
2023/06/28 05:38:26;;;;;;;6.80;3.35;;;17.80;69.20;;;;;;5051214;28;20126;-65
2023/06/28 05:40:55;;;;;;;4.72;3.30;;;17.70;69.10;;;;;;5054298;28;20043;-65
2023/06/28 05:43:22;;;;;;;7.15;4.97;;;17.70;69.50;;;;;;5055331;28;20508;-65
2023/06/28 05:45:50;;;;;;;5.68;3.60;;;17.70;69.90;;;;;;5039461;28;20051;-66
2023/06/28 05:48:15;;;;;;;8.90;4.25;;;17.70;70.30;;;;;;5037558;28;20039;-66
2023/06/28 05:50:42;;;;;;;8.75;4.15;;;17.60;70.40;;;;;;5056116;28;20037;-66
2023/06/28 05:53:08;;;;;;;9.48;5.22;;;17.60;70.70;;;;;;5055709;28;20396;-66
2023/06/28 05:55:34;;;;;;;8.27;4.13;;;17.50;71.00;;;;;;5053344;28;20052;-66
2023/06/28 05:57:59;;;;;;;6.03;3.83;;;17.50;71.10;;;;;;5055578;28;20115;-66
2023/06/28 06:00:25;;;;;;;7.72;4.70;;;17.50;71.30;;;;;;5054126;28;20492;-66
2023/06/28 06:02:51;;;;;;;10.25;5.57;;;17.50;71.50;;;;;;5054821;28;20052;-66
2023/06/28 06:05:17;;;;;;;7.72;5.00;;;17.50;71.60;;;;;;5037385;28;20484;-66
2023/06/28 06:07:43;;;;;;;8.13;3.85;;;17.50;71.70;;;;;;5054952;28;20036;-66
2023/06/28 06:10:09;;;;;;;8.50;3.78;;;17.50;71.80;;;;;;5052409;28;20043;-66
2023/06/28 06:12:36;;;;;;;8.68;4.40;;;17.40;71.80;;;;;;5054891;28;20483;-66
2023/06/28 06:15:03;;;;;;;6.45;3.70;;;17.50;72.00;;;;;;5054963;28;20089;-65
2023/06/28 06:17:28;;;;;;;10.15;4.82;;;17.40;72.00;;;;;;5038644;28;20057;-65
2023/06/28 06:19:54;;;;;;;10.98;4.88;;;17.40;72.20;;;;;;5056377;28;20040;-65
2023/06/28 06:22:20;;;;;;;7.57;3.80;;;17.40;72.40;;;;;;5022972;28;20372;-65
2023/06/28 06:24:45;;;;;;;8.43;4.28;;;17.40;72.50;;;;;;5055883;28;20138;-65
2023/06/28 06:27:11;;;;;;;6.75;4.80;;;17.40;72.60;;;;;;5055864;28;20067;-65
2023/06/28 06:29:37;;;;;;;6.85;4.07;;;17.40;72.60;;;;;;5055819;28;20107;-65
2023/06/28 06:32:03;;;;;;;8.25;4.28;;;17.40;72.60;;;;;;5055661;28;20491;-65
2023/06/28 06:34:28;;;;;;;10.18;5.18;;;17.40;72.80;;;;;;5055742;28;20044;-65
2023/06/28 06:36:56;;;;;;;9.88;5.20;;;17.40;73.00;;;;;;5055643;28;20529;-65
2023/06/28 06:39:22;;;;;;;6.60;4.72;;;17.40;72.90;;;;;;5055517;28;20391;-65
2023/06/28 06:41:48;;;;;;;8.30;4.45;;;17.40;73.00;;;;;;5055801;28;20040;-65
2023/06/28 06:44:14;;;;;;;10.10;5.85;;;17.40;73.30;;;;;;5055525;28;20381;-65
2023/06/28 06:46:39;;;;;;;11.88;4.38;;;17.40;73.40;;;;;;5055231;28;20049;-65
2023/06/28 06:49:05;;;;;;;9.25;5.30;;;17.40;73.40;;;;;;5055318;28;20041;-65
2023/06/28 06:51:31;;;;;;;7.68;4.72;;;17.40;73.50;;;;;;5038665;28;20046;-64
2023/06/28 06:53:56;;;;;;;8.48;5.20;;;17.30;74.00;;;;;;5055074;28;20045;-65
2023/06/28 06:56:22;;;;;;;12.75;5.68;;;17.30;73.90;;;;;;5055590;28;20044;-64
2023/06/28 06:58:48;;;;;;;8.35;4.18;;;17.30;74.00;;;;;;5055045;28;20127;-64
2023/06/28 07:01:14;;;;;;;6.85;5.32;;;17.20;74.20;;;;;;5055197;28;20115;-65
2023/06/28 07:03:40;;;;;;;9.48;4.97;;;17.20;74.50;;;;;;5038248;28;20128;-65
2023/06/28 07:06:06;;;;;;;8.85;4.63;;;17.20;74.60;;;;;;5055053;28;20039;-65
2023/06/28 07:08:33;;;;;;;11.10;5.85;;;17.30;74.90;;;;;;5054882;28;20040;-65
2023/06/28 07:10:59;;;;;;;8.45;5.40;;;17.30;75.10;;;;;;5072921;28;20067;-65
2023/06/28 07:13:25;;;;;;;7.55;4.53;;;17.30;75.10;;;;;;5055027;28;20466;-65
2023/06/28 07:15:50;;;;;;;8.82;5.05;;;17.40;75.30;;;;;;5072988;28;20033;-65
2023/06/28 07:18:16;;;;;;;8.05;4.25;;;17.40;75.30;;;;;;5038533;28;20044;-65
2023/06/28 07:20:42;;;;;;;7.55;4.13;;;17.40;75.10;;;;;;5054886;28;20045;-65
2023/06/28 07:23:08;;;;;;;8.30;4.90;;;17.50;75.10;;;;;;5072255;28;20652;-65
2023/06/28 07:25:33;;;;;;;7.07;4.25;;;17.50;75.20;;;;;;5038160;28;20093;-65
2023/06/28 07:27:59;;;;;;;9.10;6.05;;;17.50;75.20;;;;;;5038258;28;20035;-65
2023/06/28 07:30:28;;;;;;;10.65;5.85;;;17.60;75.10;;;;;;5054772;28;20047;-65
2023/06/28 07:32:54;;;;;;;8.52;5.35;;;17.60;75.00;;;;;;5038044;28;20114;-66
2023/06/28 07:35:20;;;;;;;10.43;5.82;;;17.60;75.10;;;;;;5054443;28;20076;-66
2023/06/28 07:37:45;;;;;;;8.02;4.65;;;17.60;75.10;;;;;;5038164;28;20032;-66
2023/06/28 07:40:13;;;;;;;12.38;6.07;;;18.00;75.40;;;;;;5054214;28;20037;-66
2023/06/28 07:42:41;;;;;;;9.30;5.22;;;17.60;75.40;;;;;;5055029;28;20119;-66
2023/06/28 07:45:07;;;;;;;10.93;5.15;;;17.60;75.40;;;;;;5054425;28;20040;-65
2023/06/28 07:47:33;;;;;;;8.07;4.72;;;17.60;76.00;;;;;;5037901;28;20039;-65
2023/06/28 07:49:59;;;;;;;8.27;4.88;;;17.60;75.50;;;;;;5054262;28;20041;-65
2023/06/28 07:52:24;;;;;;;9.30;5.00;;;17.60;75.60;;;;;;5054103;28;20032;-64
2023/06/28 07:54:50;;;;;;;10.80;5.40;;;17.50;75.60;;;;;;5054495;28;20043;-64
2023/06/28 07:57:16;;;;;;;8.63;5.32;;;17.60;75.90;;;;;;5054737;28;20048;-65
2023/06/28 07:59:41;;;;;;;11.25;6.13;;;17.60;75.90;;;;;;5054700;28;20123;-65
2023/06/28 08:02:07;;;;;;;10.45;5.75;;;17.60;76.00;;;;;;5037573;28;20044;-65
2023/06/28 08:04:33;;;;;;;10.70;5.47;;;17.60;75.90;;;;;;5047674;28;20051;-65
2023/06/28 08:06:59;;;;;;;9.57;5.65;;;17.60;75.90;;;;;;5055251;28;20045;-65
2023/06/28 08:09:25;;;;;;;12.35;6.75;;;17.60;76.00;;;;;;5058727;28;20052;-65
2023/06/28 08:11:51;;;;;;;10.75;7.03;;;17.60;76.20;;;;;;5058532;28;20085;-69
2023/06/28 08:14:16;;;;;;;9.68;6.20;;;17.60;76.50;;;;;;5058125;28;20044;-68
2023/06/28 08:16:43;;;;;;;10.23;6.43;;;17.60;76.70;;;;;;5058046;28;20036;-68
2023/06/28 08:19:10;;;;;;;8.57;5.85;;;17.60;76.90;;;;;;5057919;28;20083;-68
2023/06/28 08:21:36;;;;;;;11.35;6.95;;;17.60;77.10;;;;;;5058539;28;20137;-69
2023/06/28 08:24:02;;;;;;;9.95;6.80;;;17.60;77.00;;;;;;5058275;28;20502;-69
2023/06/28 08:26:28;;;;;;;9.73;5.93;;;17.60;77.00;;;;;;5058208;28;20051;-69
2023/06/28 08:28:53;;;;;;;10.35;6.68;;;17.70;77.10;;;;;;5058254;28;20132;-69
2023/06/28 08:31:19;;;;;;;10.70;6.80;;;17.70;77.10;;;;;;5049950;28;20041;-69
2023/06/28 08:33:45;;;;;;;12.25;6.15;;;17.70;77.00;;;;;;5055765;28;20056;-69
2023/06/28 08:36:11;;;;;;;11.48;6.22;;;17.70;76.90;;;;;;5057960;28;20479;-69
2023/06/28 08:38:36;;;;;;;13.70;7.10;;;17.70;76.90;;;;;;5051130;28;20048;-69
2023/06/28 08:41:02;;;;;;;11.95;7.40;;;17.70;76.90;;;;;;5057744;28;20043;-69
2023/06/28 08:43:28;;;;;;;12.00;7.38;;;17.80;77.00;;;;;;5057608;28;20040;-69
2023/06/28 08:45:54;;;;;;;8.73;6.80;;;17.80;77.20;;;;;;5057999;28;20086;-69
2023/06/28 08:48:20;;;;;;;8.93;6.82;;;17.80;77.20;;;;;;5041348;28;20067;-69
2023/06/28 08:50:46;;;;;;;13.23;9.05;;;17.80;77.20;;;;;;5075666;28;20037;-69
2023/06/28 08:53:18;;;;;;;9.68;7.50;;;17.90;77.30;;;;;;5075646;28;20111;-68
2023/06/28 08:55:46;;;;;;;16.00;8.90;;;17.90;77.70;;;;;;5057582;28;20056;-68
2023/06/28 08:58:12;;;;;;;15.90;9.60;;;17.90;77.20;;;;;;5057337;28;20442;-68
2023/06/28 09:00:41;;;;;;;11.38;8.48;;;18.00;77.10;;;;;;5057490;28;20089;-68
2023/06/28 09:03:08;;;;;;;12.43;8.75;;;18.00;77.10;;;;;;5074628;28;20095;-68
2023/06/28 09:05:34;;;;;;;12.52;8.45;;;18.00;77.10;;;;;;5057149;28;20045;-68
2023/06/28 09:08:01;;;;;;;14.13;9.40;;;18.10;77.10;;;;;;5056308;28;20491;-68
2023/06/28 09:10:27;;;;;;;13.70;8.65;;;18.10;77.00;;;;;;5040140;28;20102;-68
2023/06/28 09:12:53;;;;;;;12.55;8.70;;;18.10;76.90;;;;;;5040516;28;20044;-68
2023/06/28 09:15:22;;;;;;;13.15;9.20;;;18.20;76.80;;;;;;5056123;28;20052;-69
2023/06/28 09:17:48;;;;;;;12.27;9.25;;;18.20;76.70;;;;;;5056701;28;20048;-68
2023/06/28 09:20:18;;;;;;;13.82;9.52;;;18.20;76.60;;;;;;5057164;28;20052;-65
2023/06/28 09:23:21;;;;;;;15.60;9.82;;;18.20;76.70;;;;;;5056991;28;20055;-65
2023/06/28 09:25:49;;;;;;;11.85;9.98;;;18.20;76.50;;;;;;5046885;28;20055;-64
2023/06/28 09:28:15;;;;;;;12.48;10.15;;;18.20;76.90;;;;;;5074942;28;20036;-65
2023/06/28 09:30:41;;;;;;;14.70;10.38;;;18.20;77.10;;;;;;5040285;28;20098;-65
2023/06/28 09:33:07;;;;;;;13.40;10.82;;;18.20;77.50;;;;;;5039529;28;20067;-65
2023/06/28 09:35:36;;;;;;;15.20;9.77;;;18.20;77.50;;;;;;5074763;28;20047;-65
2023/06/28 09:38:07;;;;;;;12.60;9.68;;;18.20;77.60;;;;;;5074525;28;20041;-65
2023/06/28 09:40:34;;;;;;;13.68;10.75;;;18.20;77.70;;;;;;5056698;28;20548;-64
2023/06/28 09:43:00;;;;;;;16.02;10.48;;;18.30;77.90;;;;;;5056939;28;20499;-65
2023/06/28 09:45:30;;;;;;;13.60;10.38;;;18.30;77.90;;;;;;5056529;28;20041;-65
2023/06/28 09:48:03;;;;;;;13.85;10.57;;;18.30;78.00;;;;;;5039858;28;20098;-64
2023/06/28 09:50:39;;;;;;;14.50;11.05;;;18.30;78.00;;;;;;5056505;28;20107;-65
2023/06/28 09:53:13;;;;;;;14.52;10.60;;;18.30;78.00;;;;;;5056393;28;20045;-64
2023/06/28 09:55:43;;;;;;;12.32;9.45;;;18.40;77.90;;;;;;5056756;28;20052;-65
2023/06/28 09:58:11;;;;;;;12.25;10.38;;;18.40;77.80;;;;;;5074280;28;20387;-65
2023/06/28 10:00:38;;;;;;;10.88;9.40;;;18.40;77.70;;;;;;5039833;28;20068;-65
2023/06/28 10:03:11;;;;;;;14.13;9.50;;;18.40;77.60;;;;;;5055578;28;20043;-65
2023/06/28 10:05:39;;;;;;;10.55;8.93;;;18.40;77.60;;;;;;5056296;28;20044;-65
2023/06/28 10:08:24;;;;;;;10.73;9.13;;;18.40;77.60;;;;;;5074315;28;20071;-68
2023/06/28 10:10:53;;;;;;;10.63;9.10;;;18.40;77.60;;;;;;5039573;28;20040;-68
2023/06/28 10:13:21;;;;;;;9.35;8.32;;;18.40;77.90;;;;;;5055988;28;20032;-70
2023/06/28 10:15:55;;;;;;;9.90;8.80;;;18.40;78.10;;;;;;5055880;28;20546;-68
2023/06/28 10:18:23;;;;;;;12.32;11.18;;;18.40;78.30;;;;;;5055774;28;20055;-69
2023/06/28 10:20:49;;;;;;;13.00;11.50;;;18.50;78.40;;;;;;5056148;28;20047;-68
2023/06/28 10:23:17;;;;;;;10.60;9.60;;;18.50;78.20;;;;;;5073739;28;20488;-68
2023/06/28 10:25:46;;;;;;;12.63;11.20;;;18.50;78.40;;;;;;5072507;28;20424;-68
2023/06/28 10:28:15;;;;;;;9.57;8.65;;;18.50;78.30;;;;;;5054940;28;20074;-68
2023/06/28 10:30:42;;;;;;;11.55;10.25;;;18.60;78.20;;;;;;5073690;28;20120;-68
2023/06/28 10:33:09;;;;;;;11.77;10.45;;;18.60;78.30;;;;;;5055613;28;20079;-68
2023/06/28 10:35:35;;;;;;;14.60;13.13;;;18.60;78.40;;;;;;5039389;28;20503;-68
2023/06/28 10:38:01;;;;;;;14.70;13.05;;;18.70;78.40;;;;;;5055719;28;20090;-68
2023/06/28 10:40:27;;;;;;;13.23;11.93;;;18.70;78.40;;;;;;5055758;28;20032;-68
2023/06/28 10:42:53;;;;;;;13.18;11.75;;;18.70;78.30;;;;;;5055676;28;20488;-68
2023/06/28 10:45:36;;;;;;;17.67;13.05;;;18.80;78.30;;;;;;5073151;28;20040;-68
2023/06/28 10:48:04;;;;;;;14.95;13.40;;;18.90;78.30;;;;;;5073379;28;20149;-68
2023/06/28 10:50:40;;;;;;;16.90;14.90;;;18.90;78.30;;;;;;5055361;28;20486;-68
2023/06/28 10:53:07;;;;;;;16.30;14.73;;;18.90;77.70;;;;;;5038966;28;20361;-68
2023/06/28 10:55:34;;;;;;;15.25;13.68;;;18.90;77.60;;;;;;5054934;28;20129;-67
2023/06/28 10:58:08;;;;;;;17.23;15.43;;;18.90;77.60;;;;;;5055254;28;20491;-68
2023/06/28 11:00:45;;;;;;;14.50;13.07;;;19.00;77.60;;;;;;5047203;28;20044;-68
2023/06/28 11:03:11;;;;;;;19.67;16.70;;;18.90;77.40;;;;;;5038432;28;20065;-68
2023/06/28 11:05:45;;;;;;;15.68;13.98;;;19.00;77.50;;;;;;5054644;28;20040;-68
2023/06/28 11:08:16;;;;;;;16.08;14.45;;;19.00;77.40;;;;;;5055206;28;20040;-64
2023/06/28 11:10:44;;;;;;;17.10;15.02;;;19.00;77.40;;;;;;5031079;28;20033;-64
2023/06/28 11:13:15;;;;;;;18.00;16.17;;;19.00;77.10;;;;;;5055274;28;20038;-64
2023/06/28 11:15:45;;;;;;;20.85;17.45;;;19.00;77.20;;;;;;5047347;28;20059;-64
2023/06/28 11:18:19;;;;;;;22.48;17.92;;;19.00;77.20;;;;;;5055330;28;20391;-64
2023/06/28 11:20:52;;;;;;;17.55;15.73;;;19.00;77.30;;;;;;5046767;28;20094;-64
2023/06/28 11:23:37;;;;;;;18.88;16.60;;;19.00;77.20;;;;;;5054827;28;20051;-64
2023/06/28 11:26:04;;;;;;;18.02;16.00;;;19.10;77.10;;;;;;5054854;28;20123;-64
2023/06/28 11:28:33;;;;;;;20.10;17.98;;;19.00;77.30;;;;;;5054525;28;20509;-64
2023/06/28 11:31:13;;;;;;;21.95;18.40;;;19.00;77.50;;;;;;5054634;28;20051;-64
2023/06/28 11:33:40;;;;;;;17.08;15.38;;;19.10;77.70;;;;;;5038247;28;20396;-64
2023/06/28 11:36:08;;;;;;;19.15;16.83;;;19.10;77.90;;;;;;5072396;28;20481;-64
2023/06/28 11:38:35;;;;;;;20.77;18.55;;;19.10;77.90;;;;;;5054909;28;20391;-64
2023/06/28 11:41:01;;;;;;;21.00;17.00;;;19.20;77.90;;;;;;5038038;28;20040;-64
2023/06/28 11:43:26;;;;;;;17.33;15.52;;;19.20;77.90;;;;;;5037505;28;20045;-64
2023/06/28 11:45:52;;;;;;;22.92;18.92;;;19.20;77.60;;;;;;5054328;28;20064;-64
2023/06/28 11:48:20;;;;;;;21.23;18.15;;;19.20;77.30;;;;;;5054689;28;20044;-64
2023/06/28 11:50:59;;;;;;;20.42;17.00;;;19.30;77.20;;;;;;5054503;28;20047;-64
2023/06/28 11:53:26;;;;;;;19.58;16.67;;;19.30;77.20;;;;;;5054325;28;20066;-64
2023/06/28 11:55:53;;;;;;;20.73;17.70;;;19.30;76.90;;;;;;5046693;28;20037;-64
2023/06/28 11:58:35;;;;;;;22.55;18.70;;;19.30;76.90;;;;;;5054386;28;20040;-64
2023/06/28 12:01:05;;;;;;;19.98;17.77;;;19.30;77.00;;;;;;5054264;28;20028;-64
2023/06/28 12:03:38;;;;;;;21.55;17.02;;;19.40;76.90;;;;;;5071821;28;20114;-64
2023/06/28 12:06:09;;;;;;;22.60;17.17;;;19.40;76.70;;;;;;5054777;28;20068;-64
2023/06/28 12:08:39;;;;;;;23.70;18.55;;;19.40;76.70;;;;;;5054135;28;20053;-64
2023/06/28 12:11:14;;;;;;;19.40;16.20;;;19.40;76.80;;;;;;5054280;28;20029;-64
2023/06/28 12:13:40;;;;;;;23.45;17.83;;;19.40;76.70;;;;;;5054355;28;20119;-64
2023/06/28 12:16:14;;;;;;;22.30;17.15;;;19.40;76.80;;;;;;5054493;28;20522;-64
2023/06/28 12:18:59;;;;;;;21.38;15.88;;;19.50;76.80;;;;;;5054305;28;20357;-64
2023/06/28 12:21:26;;;;;;;24.48;18.75;;;19.50;76.60;;;;;;5037768;28;20119;-64
2023/06/28 12:23:52;;;;;;;20.75;17.70;;;19.50;76.60;;;;;;5053954;28;20055;-64
2023/06/28 12:26:20;;;;;;;23.92;18.33;;;19.50;76.80;;;;;;5072208;28;20438;-64
2023/06/28 12:28:50;;;;;;;23.90;17.70;;;19.60;77.00;;;;;;5054257;28;20430;-64
2023/06/28 12:31:16;;;;;;;24.30;18.90;;;19.60;77.00;;;;;;5072008;28;20041;-67
2023/06/28 12:33:42;;;;;;;23.83;18.58;;;19.60;77.10;;;;;;5053772;28;20041;-69
2023/06/28 12:36:18;;;;;;;21.48;17.98;;;19.60;77.30;;;;;;5071688;28;20142;-69
2023/06/28 12:38:45;;;;;;;20.70;18.05;;;19.70;77.20;;;;;;5053946;28;20049;-70
2023/06/28 12:41:14;;;;;;;21.98;17.77;;;19.80;77.40;;;;;;5054186;28;20033;-70